createdAt,value
2023-02-19T00:02:37.172Z,17.67
2023-02-19T00:06:20.625Z,16.40
2023-02-19T00:10:02.604Z,18.48
2023-02-19T00:13:46.968Z,13.23
2023-02-19T00:17:29.115Z,18.53
2023-02-19T00:21:11.845Z,15.23
2023-02-19T00:24:53.933Z,12.02
2023-02-19T00:28:36.458Z,16.13
2023-02-19T00:32:18.574Z,14.75
2023-02-19T00:36:05.798Z,14.50
2023-02-19T00:39:48.478Z,18.67
2023-02-19T00:43:30.411Z,19.70
2023-02-19T00:47:12.510Z,15.95
2023-02-19T00:50:54.475Z,22.08
2023-02-19T00:54:36.468Z,18.30
2023-02-19T00:58:18.387Z,18.13
2023-02-19T01:02:00.626Z,22.98
2023-02-19T01:05:42.538Z,22.03
2023-02-19T01:09:24.591Z,19.10
2023-02-19T01:13:06.700Z,16.42
2023-02-19T01:16:48.710Z,18.30
2023-02-19T01:20:30.673Z,17.02
2023-02-19T01:24:12.615Z,15.13
2023-02-19T01:27:54.565Z,18.63
2023-02-19T01:31:36.868Z,17.37
2023-02-19T01:35:21.500Z,20.48
2023-02-19T01:39:05.921Z,18.15
2023-02-19T01:42:48.025Z,17.23
2023-02-19T01:46:38.423Z,16.58
2023-02-19T01:50:20.641Z,13.18
2023-02-19T01:54:05.838Z,16.58
2023-02-19T01:57:52.346Z,11.98
2023-02-19T02:01:34.494Z,14.25
2023-02-19T02:05:29.773Z,9.73
2023-02-19T02:09:31.114Z,14.80
2023-02-19T02:13:13.209Z,15.60
2023-02-19T02:17:09.404Z,10.00
2023-02-19T02:21:28.532Z,10.60
2023-02-19T02:25:41.684Z,9.55
2023-02-19T02:29:56.137Z,11.80
2023-02-19T02:33:46.894Z,13.00
2023-02-19T02:37:34.364Z,12.50
2023-02-19T02:41:16.778Z,14.65
2023-02-19T02:45:32.148Z,10.90
2023-02-19T02:49:21.461Z,10.73
2023-02-19T02:53:27.382Z,16.35
2023-02-19T02:57:15.020Z,12.30
2023-02-19T03:01:21.504Z,11.33
2023-02-19T03:05:30.273Z,14.90
2023-02-19T03:09:30.348Z,11.05
2023-02-19T03:13:35.322Z,9.60
2023-02-19T03:17:41.228Z,10.50
2023-02-19T03:21:25.146Z,12.20
2023-02-19T03:25:37.286Z,11.48
2023-02-19T03:29:23.300Z,10.73
2023-02-19T03:33:16.308Z,14.82
2023-02-19T03:37:08.816Z,14.20
2023-02-19T03:41:17.113Z,11.87
2023-02-19T03:45:26.647Z,12.50
2023-02-19T03:49:23.768Z,11.98
2023-02-19T03:53:24.172Z,12.77
2023-02-19T03:57:15.399Z,13.32
2023-02-19T04:01:07.416Z,12.52
2023-02-19T04:04:59.066Z,11.68
2023-02-19T04:08:45.858Z,12.80
2023-02-19T04:12:29.651Z,9.30
2023-02-19T04:16:20.820Z,15.18
2023-02-19T04:20:07.118Z,12.00
2023-02-19T04:23:49.888Z,20.00
2023-02-19T04:27:32.881Z,12.75
2023-02-19T04:31:15.085Z,11.37
2023-02-19T04:34:57.095Z,14.50
2023-02-19T04:38:39.231Z,12.43
2023-02-19T04:42:21.148Z,12.35
2023-02-19T04:46:03.319Z,12.80
2023-02-19T04:49:46.056Z,8.98
2023-02-19T04:53:28.132Z,12.95
2023-02-19T04:57:10.174Z,11.47
2023-02-19T05:00:53.378Z,15.85
2023-02-19T05:04:35.360Z,12.77
2023-02-19T05:08:17.380Z,11.90
2023-02-19T05:11:59.308Z,12.40
2023-02-19T05:15:41.309Z,12.90
2023-02-19T05:19:23.237Z,13.30
2023-02-19T05:23:05.490Z,10.27
2023-02-19T05:26:48.313Z,17.48
2023-02-19T05:30:30.324Z,12.65
2023-02-19T05:34:12.386Z,10.13
2023-02-19T05:37:54.331Z,11.43
2023-02-19T05:41:36.386Z,9.43
2023-02-19T05:45:18.339Z,15.47
2023-02-19T05:49:00.240Z,9.43
2023-02-19T05:52:42.486Z,13.88
2023-02-19T05:56:39.429Z,11.57
2023-02-19T06:00:21.857Z,10.07
2023-02-19T06:04:03.991Z,11.18
2023-02-19T06:07:46.087Z,13.57
2023-02-19T06:11:29.582Z,12.50
2023-02-19T06:15:11.649Z,13.00
2023-02-19T06:18:53.640Z,15.43
2023-02-19T06:22:35.652Z,16.63
2023-02-19T06:26:25.342Z,12.23
2023-02-19T06:30:08.752Z,9.32
2023-02-19T06:33:51.015Z,9.75
2023-02-19T06:37:32.953Z,9.57
2023-02-19T06:41:15.225Z,12.30
2023-02-19T06:44:57.149Z,13.35
2023-02-19T06:48:40.082Z,12.30
2023-02-19T06:52:21.992Z,11.93
2023-02-19T06:56:22.289Z,10.52
2023-02-19T07:00:04.758Z,11.40
2023-02-19T07:03:46.670Z,11.70
2023-02-19T07:07:28.633Z,9.75
2023-02-19T07:11:10.966Z,10.38
2023-02-19T07:14:53.107Z,8.30
2023-02-19T07:18:35.601Z,10.57
2023-02-19T07:22:17.552Z,14.77
2023-02-19T07:25:59.924Z,9.80
2023-02-19T07:29:41.839Z,10.43
2023-02-19T07:33:23.751Z,13.63
2023-02-19T07:37:21.884Z,12.20
2023-02-19T07:41:06.218Z,7.95
2023-02-19T07:45:10.604Z,15.63
2023-02-19T07:48:52.813Z,17.13
2023-02-19T07:56:35.370Z,10.63
2023-02-19T08:00:19.265Z,12.05
2023-02-19T08:08:11.129Z,13.13
2023-02-19T08:16:53.112Z,7.90
2023-02-19T08:20:35.317Z,14.38
2023-02-19T08:24:43.012Z,9.05
2023-02-19T08:28:25.642Z,8.77
2023-02-19T08:32:54.004Z,8.13
2023-02-19T08:37:04.065Z,9.68
2023-02-19T08:40:46.674Z,10.63
2023-02-19T08:48:37.108Z,7.72
2023-02-19T08:56:35.758Z,8.90
2023-02-19T09:04:23.494Z,9.18
2023-02-19T09:08:37.240Z,10.70
2023-02-19T09:12:19.654Z,8.50
2023-02-19T09:20:20.325Z,10.43
2023-02-19T09:24:19.577Z,7.50
2023-02-19T09:28:12.620Z,8.43
2023-02-19T09:32:16.623Z,9.63
2023-02-19T09:36:06.745Z,15.27
2023-02-19T09:40:10.541Z,7.15
2023-02-19T09:44:36.609Z,5.90
2023-02-19T09:48:34.544Z,8.00
2023-02-19T09:52:37.475Z,6.05
2023-02-19T09:56:27.678Z,5.82
2023-02-19T10:00:26.335Z,8.40
2023-02-19T10:04:19.525Z,8.57
2023-02-19T10:08:19.427Z,12.95
2023-02-19T10:12:48.023Z,10.85
2023-02-19T10:16:41.551Z,5.90
2023-02-19T10:25:17.333Z,9.63
2023-02-19T10:29:08.413Z,8.75
2023-02-19T10:33:10.189Z,9.65
2023-02-19T10:41:27.641Z,11.80
2023-02-19T10:50:04.304Z,7.13
2023-02-19T10:54:31.617Z,7.30
2023-02-19T11:08:00.586Z,8.60
2023-02-19T11:12:30.532Z,9.00
2023-02-19T11:36:37.615Z,6.40
2023-02-19T11:40:41.310Z,10.20
2023-02-19T11:44:35.862Z,8.23
2023-02-19T11:48:59.186Z,7.13
2023-02-19T11:57:30.932Z,9.30
2023-02-19T12:02:02.573Z,5.63
2023-02-19T12:11:04.513Z,6.72
2023-02-19T12:15:35.278Z,7.82
2023-02-19T12:20:03.662Z,6.75
2023-02-19T12:24:31.567Z,5.03
2023-02-19T12:46:00.644Z,10.45
2023-02-19T12:50:28.633Z,10.95
2023-02-19T12:55:00.395Z,14.57
2023-02-19T12:59:29.711Z,8.45
2023-02-19T13:15:48.974Z,8.52
2023-02-19T13:19:48.228Z,5.85
2023-02-19T13:32:41.302Z,6.57
2023-02-19T13:37:49.719Z,9.38
2023-02-19T13:46:15.446Z,7.20
2023-02-19T13:54:48.955Z,9.07
2023-02-19T13:59:13.793Z,9.80
2023-02-19T14:07:09.918Z,7.37
2023-02-19T14:10:58.035Z,9.18
2023-02-19T14:43:12.646Z,8.80
2023-02-19T14:48:05.311Z,7.80
2023-02-19T14:52:41.147Z,7.07
2023-02-19T15:01:37.532Z,11.07
2023-02-19T15:05:45.443Z,7.18
2023-02-19T15:09:36.190Z,6.43
2023-02-19T15:27:31.335Z,6.22
2023-02-19T15:35:28.556Z,6.10
2023-02-19T15:44:30.557Z,6.38
2023-02-19T15:48:56.694Z,9.82
2023-02-19T15:53:31.213Z,5.10
2023-02-19T15:57:57.903Z,7.28
2023-02-19T16:02:04.504Z,6.70
2023-02-19T16:19:00.182Z,9.70
2023-02-19T16:22:44.622Z,7.72
2023-02-19T16:26:49.234Z,11.02
2023-02-19T16:30:37.736Z,5.70
2023-02-19T16:34:41.570Z,7.10
2023-02-19T16:39:36.728Z,6.03
2023-02-19T16:43:42.305Z,10.10
2023-02-19T16:47:37.528Z,8.43
2023-02-19T17:00:37.132Z,4.97
2023-02-19T17:04:25.390Z,4.87
2023-02-19T17:13:01.112Z,5.50
2023-02-19T17:16:49.539Z,5.78
2023-02-19T17:21:56.375Z,4.90
2023-02-19T17:25:48.763Z,8.07
2023-02-19T17:29:46.195Z,6.47
2023-02-19T17:33:41.160Z,8.63
2023-02-19T17:37:40.724Z,5.63
2023-02-19T17:41:27.732Z,7.93
2023-02-19T17:45:10.116Z,6.13
2023-02-19T17:48:53.615Z,5.13
2023-02-19T17:52:36.320Z,9.07
2023-02-19T17:56:21.542Z,5.90
2023-02-19T18:00:04.847Z,7.47
2023-02-19T18:03:46.999Z,8.52
2023-02-19T18:07:29.115Z,10.25
2023-02-19T18:11:11.252Z,8.40
2023-02-19T18:14:56.749Z,5.40
2023-02-19T18:18:38.729Z,6.90
2023-02-19T18:22:20.885Z,9.00
2023-02-19T18:26:03.299Z,5.50
2023-02-19T18:29:54.405Z,9.85
2023-02-19T18:33:36.429Z,9.32
2023-02-19T18:37:19.321Z,9.43
2023-02-19T18:41:02.173Z,11.02
2023-02-19T18:44:48.066Z,12.27
2023-02-19T18:48:29.981Z,12.97
2023-02-19T18:52:12.612Z,10.50
2023-02-19T18:55:54.680Z,14.55
2023-02-19T18:59:37.213Z,12.50
2023-02-19T19:03:19.133Z,11.05
2023-02-19T19:07:01.128Z,10.57
2023-02-19T19:10:43.099Z,11.05
2023-02-19T19:14:25.037Z,7.83
2023-02-19T19:18:07.848Z,11.57
2023-02-19T19:21:53.979Z,9.82
2023-02-19T19:25:35.912Z,11.60
2023-02-19T19:29:19.366Z,10.32
2023-02-19T19:33:03.558Z,10.30
2023-02-19T19:36:47.193Z,11.30
2023-02-19T19:40:29.119Z,11.35
2023-02-19T19:44:12.151Z,12.00
2023-02-19T19:47:54.538Z,11.95
2023-02-19T19:51:36.782Z,10.63
2023-02-19T19:55:18.936Z,12.15
2023-02-19T19:59:00.880Z,10.75
2023-02-19T20:02:42.880Z,9.00
2023-02-19T20:06:30.868Z,8.75
2023-02-19T20:10:14.170Z,8.30
2023-02-19T20:13:56.140Z,6.50
2023-02-19T20:17:38.555Z,6.95
2023-02-19T20:21:20.515Z,9.85
2023-02-19T20:25:02.461Z,8.90
2023-02-19T20:28:46.602Z,8.20
2023-02-19T20:32:28.770Z,8.65
2023-02-19T20:36:10.869Z,8.73
2023-02-19T20:39:52.775Z,9.40
2023-02-19T20:43:34.724Z,7.43
2023-02-19T20:47:16.933Z,9.68
2023-02-19T20:51:02.168Z,6.60
2023-02-19T20:54:44.632Z,9.48
2023-02-19T20:58:26.764Z,7.15
2023-02-19T21:02:15.039Z,7.78
2023-02-19T21:05:56.985Z,5.80
2023-02-19T21:09:39.040Z,5.18
2023-02-19T21:13:21.737Z,4.30
2023-02-19T21:17:03.827Z,4.30
2023-02-19T21:20:46.058Z,5.88
2023-02-19T21:24:28.062Z,6.57
2023-02-19T21:28:10.909Z,4.83
2023-02-19T21:31:54.822Z,4.95
2023-02-19T21:35:37.056Z,4.82
2023-02-19T21:39:22.012Z,5.97
2023-02-19T21:43:04.775Z,5.73
2023-02-19T21:46:47.122Z,4.00
2023-02-19T21:50:29.163Z,4.10
2023-02-19T21:54:21.744Z,5.97
2023-02-19T21:58:04.173Z,3.05
2023-02-19T22:01:46.640Z,7.15
2023-02-19T22:05:28.633Z,5.37
2023-02-19T22:09:11.859Z,4.45
2023-02-19T22:12:53.891Z,4.63
2023-02-19T22:16:35.834Z,4.72
2023-02-19T22:20:20.061Z,5.60
2023-02-19T22:24:02.877Z,4.55
2023-02-19T22:27:44.856Z,6.10
2023-02-19T22:31:28.462Z,3.70
2023-02-19T22:35:10.521Z,6.88
2023-02-19T22:38:52.830Z,4.65
2023-02-19T22:42:36.014Z,7.95
2023-02-19T22:46:23.949Z,7.05
2023-02-19T22:50:07.678Z,6.38
2023-02-19T22:53:52.003Z,7.20
2023-02-19T22:57:33.988Z,6.43
2023-02-19T23:01:16.140Z,3.35
2023-02-19T23:04:58.196Z,5.72
2023-02-19T23:08:42.310Z,7.30
2023-02-19T23:12:24.337Z,6.07
2023-02-19T23:16:06.368Z,6.03
2023-02-19T23:19:48.710Z,7.63
2023-02-19T23:23:30.722Z,5.82
2023-02-19T23:27:13.009Z,5.53
2023-02-19T23:30:55.088Z,7.63
2023-02-19T23:34:37.145Z,5.60
2023-02-19T23:38:19.179Z,4.55
2023-02-19T23:42:01.213Z,7.35
2023-02-19T23:45:43.172Z,5.37
2023-02-19T23:49:25.224Z,6.60
2023-02-19T23:53:07.216Z,6.43
2023-02-19T23:56:49.303Z,6.68
